sensor_id;sensor_type;location;lat;lon;timestamp;temperature;humidity
5554;DHT22;2800;49.528;8.666;2022-10-15T00:02:07;14.50;99.90
5554;DHT22;2800;49.528;8.666;2022-10-15T00:04:33;14.50;99.90
5554;DHT22;2800;49.528;8.666;2022-10-15T00:06:58;14.50;99.90
5554;DHT22;2800;49.528;8.666;2022-10-15T00:09:24;14.50;99.90
5554;DHT22;2800;49.528;8.666;2022-10-15T00:11:49;14.50;99.90
5554;DHT22;2800;49.528;8.666;2022-10-15T00:14:16;14.50;99.90
5554;DHT22;2800;49.528;8.666;2022-10-15T00:16:41;14.50;99.90
5554;DHT22;2800;49.528;8.666;2022-10-15T00:19:08;14.50;99.90
5554;DHT22;2800;49.528;8.666;2022-10-15T00:21:34;14.60;99.90
5554;DHT22;2800;49.528;8.666;2022-10-15T00:24:00;14.60;99.90
5554;DHT22;2800;49.528;8.666;2022-10-15T00:26:27;14.60;99.90
5554;DHT22;2800;49.528;8.666;2022-10-15T00:28:56;14.60;99.90
5554;DHT22;2800;49.528;8.666;2022-10-15T00:31:23;14.60;99.90
5554;DHT22;2800;49.528;8.666;2022-10-15T00:33:50;14.60;99.90
5554;DHT22;2800;49.528;8.666;2022-10-15T00:36:19;14.60;99.90
5554;DHT22;2800;49.528;8.666;2022-10-15T00:38:45;14.60;99.90
5554;DHT22;2800;49.528;8.666;2022-10-15T00:41:18;15.30;99.90
5554;DHT22;2800;49.528;8.666;2022-10-15T00:43:47;14.60;99.90
5554;DHT22;2800;49.528;8.666;2022-10-15T00:48:41;14.60;99.90
5554;DHT22;2800;49.528;8.666;2022-10-15T00:51:08;14.60;99.90
5554;DHT22;2800;49.528;8.666;2022-10-15T00:53:34;14.70;99.90
5554;DHT22;2800;49.528;8.666;2022-10-15T00:55:59;14.70;99.90
5554;DHT22;2800;49.528;8.666;2022-10-15T00:58:28;14.70;99.90
5554;DHT22;2800;49.528;8.666;2022-10-15T01:00:56;14.70;99.90
5554;DHT22;2800;49.528;8.666;2022-10-15T01:03:22;14.70;99.90
5554;DHT22;2800;49.528;8.666;2022-10-15T01:05:50;14.70;99.90
5554;DHT22;2800;49.528;8.666;2022-10-15T01:08:16;14.70;99.90
5554;DHT22;2800;49.528;8.666;2022-10-15T01:10:54;14.70;99.90
5554;DHT22;2800;49.528;8.666;2022-10-15T01:13:40;14.70;99.90
5554;DHT22;2800;49.528;8.666;2022-10-15T01:16:19;14.70;99.90
5554;DHT22;2800;49.528;8.666;2022-10-15T01:19:01;14.70;99.90
5554;DHT22;2800;49.528;8.666;2022-10-15T01:21:34;14.70;99.90
5554;DHT22;2800;49.528;8.666;2022-10-15T01:27:50;14.70;99.90
5554;DHT22;2800;49.528;8.666;2022-10-15T01:30:27;14.70;99.90
5554;DHT22;2800;49.528;8.666;2022-10-15T01:35:57;14.70;99.90
5554;DHT22;2800;49.528;8.666;2022-10-15T01:41:11;14.80;99.90
5554;DHT22;2800;49.528;8.666;2022-10-15T01:44:30;14.80;99.90
5554;DHT22;2800;49.528;8.666;2022-10-15T01:46:40;14.80;99.90
5554;DHT22;2800;49.528;8.666;2022-10-15T01:49:08;14.80;99.90
5554;DHT22;2800;49.528;8.666;2022-10-15T01:51:37;14.80;99.90
5554;DHT22;2800;49.528;8.666;2022-10-15T01:54:06;14.80;99.90
5554;DHT22;2800;49.528;8.666;2022-10-15T01:56:33;14.80;99.90
5554;DHT22;2800;49.528;8.666;2022-10-15T01:59:01;14.80;99.90
5554;DHT22;2800;49.528;8.666;2022-10-15T02:01:28;14.80;99.90
5554;DHT22;2800;49.528;8.666;2022-10-15T02:03:53;14.90;99.90
5554;DHT22;2800;49.528;8.666;2022-10-15T02:06:33;14.90;99.90
5554;DHT22;2800;49.528;8.666;2022-10-15T02:09:09;14.80;99.90
5554;DHT22;2800;49.528;8.666;2022-10-15T02:11:53;14.80;99.90
5554;DHT22;2800;49.528;8.666;2022-10-15T02:14:30;14.80;99.90
5554;DHT22;2800;49.528;8.666;2022-10-15T02:17:07;14.90;99.90
5554;DHT22;2800;49.528;8.666;2022-10-15T02:19:50;14.90;99.90
5554;DHT22;2800;49.528;8.666;2022-10-15T02:22:54;14.90;99.90
5554;DHT22;2800;49.528;8.666;2022-10-15T02:25:15;14.90;99.90
5554;DHT22;2800;49.528;8.666;2022-10-15T02:27:43;14.90;99.90
5554;DHT22;2800;49.528;8.666;2022-10-15T02:30:11;14.90;99.90
5554;DHT22;2800;49.528;8.666;2022-10-15T02:32:39;14.90;99.90
5554;DHT22;2800;49.528;8.666;2022-10-15T02:35:07;14.90;99.90
5554;DHT22;2800;49.528;8.666;2022-10-15T02:37:34;14.90;99.90
5554;DHT22;2800;49.528;8.666;2022-10-15T02:40:00;14.90;99.90
5554;DHT22;2800;49.528;8.666;2022-10-15T02:42:26;14.90;99.90
5554;DHT22;2800;49.528;8.666;2022-10-15T02:44:52;14.90;99.90
5554;DHT22;2800;49.528;8.666;2022-10-15T02:47:17;14.90;99.90
5554;DHT22;2800;49.528;8.666;2022-10-15T02:49:43;14.90;99.90
5554;DHT22;2800;49.528;8.666;2022-10-15T02:52:09;14.90;99.90
5554;DHT22;2800;49.528;8.666;2022-10-15T02:54:34;14.90;99.90
5554;DHT22;2800;49.528;8.666;2022-10-15T02:57:00;15.00;99.90
5554;DHT22;2800;49.528;8.666;2022-10-15T02:59:25;14.90;99.90
5554;DHT22;2800;49.528;8.666;2022-10-15T03:01:51;15.00;99.90
5554;DHT22;2800;49.528;8.666;2022-10-15T03:04:16;15.00;99.90
5554;DHT22;2800;49.528;8.666;2022-10-15T03:06:42;15.00;99.90
5554;DHT22;2800;49.528;8.666;2022-10-15T03:09:08;15.00;99.90
5554;DHT22;2800;49.528;8.666;2022-10-15T03:11:33;15.00;99.90
5554;DHT22;2800;49.528;8.666;2022-10-15T03:13:59;15.00;99.90
5554;DHT22;2800;49.528;8.666;2022-10-15T03:16:24;15.00;99.90
5554;DHT22;2800;49.528;8.666;2022-10-15T03:18:50;15.00;99.90
5554;DHT22;2800;49.528;8.666;2022-10-15T03:21:15;14.50;99.90
5554;DHT22;2800;49.528;8.666;2022-10-15T03:23:41;15.00;99.90
5554;DHT22;2800;49.528;8.666;2022-10-15T03:26:07;15.00;99.90
5554;DHT22;2800;49.528;8.666;2022-10-15T03:28:32;15.00;99.90
5554;DHT22;2800;49.528;8.666;2022-10-15T03:30:58;15.00;99.90
5554;DHT22;2800;49.528;8.666;2022-10-15T03:33:24;15.00;99.90
5554;DHT22;2800;49.528;8.666;2022-10-15T03:35:49;15.00;99.90
5554;DHT22;2800;49.528;8.666;2022-10-15T03:38:16;15.00;99.90
5554;DHT22;2800;49.528;8.666;2022-10-15T03:40:42;15.00;99.90
5554;DHT22;2800;49.528;8.666;2022-10-15T03:43:09;15.00;99.90
5554;DHT22;2800;49.528;8.666;2022-10-15T03:45:34;15.00;99.90
5554;DHT22;2800;49.528;8.666;2022-10-15T03:48:00;15.00;99.90
5554;DHT22;2800;49.528;8.666;2022-10-15T03:50:25;15.00;99.90
5554;DHT22;2800;49.528;8.666;2022-10-15T03:52:51;15.10;99.90
5554;DHT22;2800;49.528;8.666;2022-10-15T03:55:16;15.10;99.90
5554;DHT22;2800;49.528;8.666;2022-10-15T03:57:42;15.10;99.90
5554;DHT22;2800;49.528;8.666;2022-10-15T04:00:10;15.10;99.90
5554;DHT22;2800;49.528;8.666;2022-10-15T04:02:36;15.10;99.90
5554;DHT22;2800;49.528;8.666;2022-10-15T04:05:01;15.10;99.90
5554;DHT22;2800;49.528;8.666;2022-10-15T04:07:27;15.10;99.90
5554;DHT22;2800;49.528;8.666;2022-10-15T04:09:52;15.10;99.90
5554;DHT22;2800;49.528;8.666;2022-10-15T04:12:18;15.10;99.90
5554;DHT22;2800;49.528;8.666;2022-10-15T04:14:43;15.10;99.90
5554;DHT22;2800;49.528;8.666;2022-10-15T04:17:09;15.10;99.90
5554;DHT22;2800;49.528;8.666;2022-10-15T04:19:35;15.20;99.90
5554;DHT22;2800;49.528;8.666;2022-10-15T04:22:00;15.10;99.90
5554;DHT22;2800;49.528;8.666;2022-10-15T04:24:26;15.10;99.90
5554;DHT22;2800;49.528;8.666;2022-10-15T04:26:52;15.10;99.90
5554;DHT22;2800;49.528;8.666;2022-10-15T04:29:17;15.10;99.90
5554;DHT22;2800;49.528;8.666;2022-10-15T04:31:43;15.10;99.90
5554;DHT22;2800;49.528;8.666;2022-10-15T04:34:09;14.10;99.90
5554;DHT22;2800;49.528;8.666;2022-10-15T04:36:35;15.20;99.90
5554;DHT22;2800;49.528;8.666;2022-10-15T04:39:01;15.20;99.90
5554;DHT22;2800;49.528;8.666;2022-10-15T04:41:27;15.20;99.90
5554;DHT22;2800;49.528;8.666;2022-10-15T04:43:52;15.20;99.90
5554;DHT22;2800;49.528;8.666;2022-10-15T04:46:18;15.20;99.90
5554;DHT22;2800;49.528;8.666;2022-10-15T04:48:46;15.20;99.90
5554;DHT22;2800;49.528;8.666;2022-10-15T04:51:17;15.20;99.90
5554;DHT22;2800;49.528;8.666;2022-10-15T04:53:44;15.20;99.90
5554;DHT22;2800;49.528;8.666;2022-10-15T04:56:13;15.20;99.90
5554;DHT22;2800;49.528;8.666;2022-10-15T04:58:40;15.20;99.90
5554;DHT22;2800;49.528;8.666;2022-10-15T05:01:08;15.20;99.90
5554;DHT22;2800;49.528;8.666;2022-10-15T05:03:39;15.20;99.90
5554;DHT22;2800;49.528;8.666;2022-10-15T05:06:07;15.20;99.90
5554;DHT22;2800;49.528;8.666;2022-10-15T05:08:34;15.20;99.90
5554;DHT22;2800;49.528;8.666;2022-10-15T05:11:01;15.20;99.90
5554;DHT22;2800;49.528;8.666;2022-10-15T05:13:27;15.20;99.90
5554;DHT22;2800;49.528;8.666;2022-10-15T05:15:53;15.20;99.90
5554;DHT22;2800;49.528;8.666;2022-10-15T05:18:18;15.20;99.90
5554;DHT22;2800;49.528;8.666;2022-10-15T05:20:44;15.20;99.90
5554;DHT22;2800;49.528;8.666;2022-10-15T05:23:09;15.30;99.90
5554;DHT22;2800;49.528;8.666;2022-10-15T05:25:35;15.20;99.90
5554;DHT22;2800;49.528;8.666;2022-10-15T05:28:00;15.20;99.90
5554;DHT22;2800;49.528;8.666;2022-10-15T05:30:26;15.20;99.90
5554;DHT22;2800;49.528;8.666;2022-10-15T05:32:52;15.20;99.90
5554;DHT22;2800;49.528;8.666;2022-10-15T05:35:18;15.20;99.90
5554;DHT22;2800;49.528;8.666;2022-10-15T05:37:44;15.20;99.90
5554;DHT22;2800;49.528;8.666;2022-10-15T05:40:10;15.20;99.90
5554;DHT22;2800;49.528;8.666;2022-10-15T05:42:36;15.30;99.90
5554;DHT22;2800;49.528;8.666;2022-10-15T05:45:01;15.20;99.90
5554;DHT22;2800;49.528;8.666;2022-10-15T05:47:27;15.30;99.90
5554;DHT22;2800;49.528;8.666;2022-10-15T05:49:52;15.30;99.90
5554;DHT22;2800;49.528;8.666;2022-10-15T05:52:18;15.10;99.90
5554;DHT22;2800;49.528;8.666;2022-10-15T05:54:43;15.30;99.90
5554;DHT22;2800;49.528;8.666;2022-10-15T05:57:09;15.20;99.90
5554;DHT22;2800;49.528;8.666;2022-10-15T05:59:34;15.30;99.90
5554;DHT22;2800;49.528;8.666;2022-10-15T06:02:00;15.30;99.90
5554;DHT22;2800;49.528;8.666;2022-10-15T06:04:25;15.30;99.90
5554;DHT22;2800;49.528;8.666;2022-10-15T06:06:51;15.30;99.90
5554;DHT22;2800;49.528;8.666;2022-10-15T06:09:16;15.30;99.90
5554;DHT22;2800;49.528;8.666;2022-10-15T06:11:42;15.30;99.90
5554;DHT22;2800;49.528;8.666;2022-10-15T06:14:07;15.30;99.90
5554;DHT22;2800;49.528;8.666;2022-10-15T06:16:33;15.30;99.90
5554;DHT22;2800;49.528;8.666;2022-10-15T06:18:59;15.30;99.90
5554;DHT22;2800;49.528;8.666;2022-10-15T06:21:24;15.30;99.90
5554;DHT22;2800;49.528;8.666;2022-10-15T06:23:50;15.30;99.90
5554;DHT22;2800;49.528;8.666;2022-10-15T06:26:15;15.30;99.90
5554;DHT22;2800;49.528;8.666;2022-10-15T06:28:41;15.30;99.90
5554;DHT22;2800;49.528;8.666;2022-10-15T06:31:07;15.30;99.90
5554;DHT22;2800;49.528;8.666;2022-10-15T06:33:34;15.40;99.90
5554;DHT22;2800;49.528;8.666;2022-10-15T06:36:03;15.30;99.90
5554;DHT22;2800;49.528;8.666;2022-10-15T06:38:30;15.40;99.90
5554;DHT22;2800;49.528;8.666;2022-10-15T06:40:55;15.30;99.90
5554;DHT22;2800;49.528;8.666;2022-10-15T06:43:21;15.40;99.90
5554;DHT22;2800;49.528;8.666;2022-10-15T06:45:46;15.40;99.90
5554;DHT22;2800;49.528;8.666;2022-10-15T06:48:12;15.40;99.90
5554;DHT22;2800;49.528;8.666;2022-10-15T06:50:38;15.40;99.90
5554;DHT22;2800;49.528;8.666;2022-10-15T06:53:04;15.40;99.90
5554;DHT22;2800;49.528;8.666;2022-10-15T06:55:30;15.40;99.90
5554;DHT22;2800;49.528;8.666;2022-10-15T06:57:56;15.50;99.90
5554;DHT22;2800;49.528;8.666;2022-10-15T07:00:23;15.50;99.90
5554;DHT22;2800;49.528;8.666;2022-10-15T07:02:50;15.40;99.90
5554;DHT22;2800;49.528;8.666;2022-10-15T07:05:16;15.40;99.90
5554;DHT22;2800;49.528;8.666;2022-10-15T07:07:41;15.40;99.90
5554;DHT22;2800;49.528;8.666;2022-10-15T07:10:07;15.50;99.90
5554;DHT22;2800;49.528;8.666;2022-10-15T07:12:33;15.40;99.90
5554;DHT22;2800;49.528;8.666;2022-10-15T07:14:59;15.50;99.90
5554;DHT22;2800;49.528;8.666;2022-10-15T07:17:24;15.50;99.90
5554;DHT22;2800;49.528;8.666;2022-10-15T07:19:50;15.50;99.90
5554;DHT22;2800;49.528;8.666;2022-10-15T07:22:15;15.50;99.90
5554;DHT22;2800;49.528;8.666;2022-10-15T07:24:41;15.50;99.90
5554;DHT22;2800;49.528;8.666;2022-10-15T07:27:07;15.50;99.90
5554;DHT22;2800;49.528;8.666;2022-10-15T07:29:32;15.50;99.90
5554;DHT22;2800;49.528;8.666;2022-10-15T07:31:58;15.50;99.90
5554;DHT22;2800;49.528;8.666;2022-10-15T07:34:24;15.50;99.90
5554;DHT22;2800;49.528;8.666;2022-10-15T07:36:49;15.50;99.90
5554;DHT22;2800;49.528;8.666;2022-10-15T07:39:15;15.50;99.90
5554;DHT22;2800;49.528;8.666;2022-10-15T07:41:43;15.50;99.90
5554;DHT22;2800;49.528;8.666;2022-10-15T07:44:09;15.50;99.90
5554;DHT22;2800;49.528;8.666;2022-10-15T07:46:35;15.50;99.90
5554;DHT22;2800;49.528;8.666;2022-10-15T07:49:00;15.50;99.90
5554;DHT22;2800;49.528;8.666;2022-10-15T07:51:25;15.50;99.90
5554;DHT22;2800;49.528;8.666;2022-10-15T07:53:51;15.50;99.90
5554;DHT22;2800;49.528;8.666;2022-10-15T07:56:16;15.50;99.90
5554;DHT22;2800;49.528;8.666;2022-10-15T07:58:43;15.50;99.90
5554;DHT22;2800;49.528;8.666;2022-10-15T08:01:16;15.50;99.90
5554;DHT22;2800;49.528;8.666;2022-10-15T08:03:42;15.50;99.90
5554;DHT22;2800;49.528;8.666;2022-10-15T08:06:08;15.60;99.90
5554;DHT22;2800;49.528;8.666;2022-10-15T08:08:34;15.60;99.90
5554;DHT22;2800;49.528;8.666;2022-10-15T08:11:07;15.60;99.90
5554;DHT22;2800;49.528;8.666;2022-10-15T08:13:33;15.70;99.90
5554;DHT22;2800;49.528;8.666;2022-10-15T08:15:58;15.80;99.90
5554;DHT22;2800;49.528;8.666;2022-10-15T08:18:24;15.80;99.90
5554;DHT22;2800;49.528;8.666;2022-10-15T08:20:51;15.80;99.90
5554;DHT22;2800;49.528;8.666;2022-10-15T08:23:16;15.90;99.90
5554;DHT22;2800;49.528;8.666;2022-10-15T08:25:42;15.90;99.90
5554;DHT22;2800;49.528;8.666;2022-10-15T08:28:08;15.90;99.90
5554;DHT22;2800;49.528;8.666;2022-10-15T08:30:35;16.00;99.90
5554;DHT22;2800;49.528;8.666;2022-10-15T08:33:01;16.00;99.90
5554;DHT22;2800;49.528;8.666;2022-10-15T08:35:26;15.90;99.90
5554;DHT22;2800;49.528;8.666;2022-10-15T08:37:55;15.90;99.90
5554;DHT22;2800;49.528;8.666;2022-10-15T08:40:23;16.00;99.90
5554;DHT22;2800;49.528;8.666;2022-10-15T08:42:49;16.00;99.90
5554;DHT22;2800;49.528;8.666;2022-10-15T08:45:28;15.90;99.90
5554;DHT22;2800;49.528;8.666;2022-10-15T08:48:20;15.90;99.90
5554;DHT22;2800;49.528;8.666;2022-10-15T08:51:07;15.80;99.90
5554;DHT22;2800;49.528;8.666;2022-10-15T08:53:42;15.80;99.90
5554;DHT22;2800;49.528;8.666;2022-10-15T08:56:32;15.70;99.90
5554;DHT22;2800;49.528;8.666;2022-10-15T09:01:53;15.70;99.90
5554;DHT22;2800;49.528;8.666;2022-10-15T09:04:29;15.70;99.90
5554;DHT22;2800;49.528;8.666;2022-10-15T09:07:12;15.70;99.90
5554;DHT22;2800;49.528;8.666;2022-10-15T09:09:50;15.70;99.90
5554;DHT22;2800;49.528;8.666;2022-10-15T09:12:46;15.70;99.90
5554;DHT22;2800;49.528;8.666;2022-10-15T09:15:16;15.70;99.90
5554;DHT22;2800;49.528;8.666;2022-10-15T09:17:43;15.70;99.90
5554;DHT22;2800;49.528;8.666;2022-10-15T09:20:18;15.80;99.90
5554;DHT22;2800;49.528;8.666;2022-10-15T09:22:49;15.80;99.90
5554;DHT22;2800;49.528;8.666;2022-10-15T09:25:18;15.80;99.90
5554;DHT22;2800;49.528;8.666;2022-10-15T09:27:46;15.80;99.90
5554;DHT22;2800;49.528;8.666;2022-10-15T09:36:15;15.80;99.90
5554;DHT22;2800;49.528;8.666;2022-10-15T09:38:59;15.80;99.90
5554;DHT22;2800;49.528;8.666;2022-10-15T09:44:12;15.80;99.90
5554;DHT22;2800;49.528;8.666;2022-10-15T09:46:43;15.70;99.90
5554;DHT22;2800;49.528;8.666;2022-10-15T09:49:16;15.70;99.90
5554;DHT22;2800;49.528;8.666;2022-10-15T09:54:37;15.60;99.90
5554;DHT22;2800;49.528;8.666;2022-10-15T09:57:08;15.60;99.90
5554;DHT22;2800;49.528;8.666;2022-10-15T09:59:35;15.50;99.90
5554;DHT22;2800;49.528;8.666;2022-10-15T10:04:37;15.60;99.90
5554;DHT22;2800;49.528;8.666;2022-10-15T10:07:05;15.60;99.90
5554;DHT22;2800;49.528;8.666;2022-10-15T10:12:47;15.60;99.90
5554;DHT22;2800;49.528;8.666;2022-10-15T10:15:35;15.70;99.90
5554;DHT22;2800;49.528;8.666;2022-10-15T10:18:01;15.70;99.90
5554;DHT22;2800;49.528;8.666;2022-10-15T10:20:32;15.80;99.90
5554;DHT22;2800;49.528;8.666;2022-10-15T10:23:07;16.30;99.90
5554;DHT22;2800;49.528;8.666;2022-10-15T10:25:44;15.90;99.90
5554;DHT22;2800;49.528;8.666;2022-10-15T10:30:38;16.00;99.90
5554;DHT22;2800;49.528;8.666;2022-10-15T10:33:11;16.00;99.90
5554;DHT22;2800;49.528;8.666;2022-10-15T10:35:49;16.00;99.90
5554;DHT22;2800;49.528;8.666;2022-10-15T10:38:38;16.10;99.90
5554;DHT22;2800;49.528;8.666;2022-10-15T10:41:09;16.10;99.90
5554;DHT22;2800;49.528;8.666;2022-10-15T10:43:40;16.20;99.90
5554;DHT22;2800;49.528;8.666;2022-10-15T10:46:18;16.20;99.90
5554;DHT22;2800;49.528;8.666;2022-10-15T10:48:47;16.30;99.90
5554;DHT22;2800;49.528;8.666;2022-10-15T10:51:25;16.40;99.90
5554;DHT22;2800;49.528;8.666;2022-10-15T10:54:02;16.50;99.90
5554;DHT22;2800;49.528;8.666;2022-10-15T10:56:40;16.50;99.90
5554;DHT22;2800;49.528;8.666;2022-10-15T10:59:17;16.50;99.90
5554;DHT22;2800;49.528;8.666;2022-10-15T11:01:44;16.50;99.90
5554;DHT22;2800;49.528;8.666;2022-10-15T11:04:33;16.50;99.90
5554;DHT22;2800;49.528;8.666;2022-10-15T11:07:28;16.50;99.90
5554;DHT22;2800;49.528;8.666;2022-10-15T11:09:52;16.60;99.90
5554;DHT22;2800;49.528;8.666;2022-10-15T11:12:30;16.80;99.90
5554;DHT22;2800;49.528;8.666;2022-10-15T11:18:16;16.80;99.90
5554;DHT22;2800;49.528;8.666;2022-10-15T11:23:40;16.80;99.90
5554;DHT22;2800;49.528;8.666;2022-10-15T11:29:17;16.80;99.90
5554;DHT22;2800;49.528;8.666;2022-10-15T11:34:51;16.80;99.90
5554;DHT22;2800;49.528;8.666;2022-10-15T11:40:17;16.80;99.90
5554;DHT22;2800;49.528;8.666;2022-10-15T11:42:57;16.80;99.90
5554;DHT22;2800;49.528;8.666;2022-10-15T11:56:36;16.90;99.90
5554;DHT22;2800;49.528;8.666;2022-10-15T11:59:15;16.90;99.90
5554;DHT22;2800;49.528;8.666;2022-10-15T12:01:47;16.90;99.90
5554;DHT22;2800;49.528;8.666;2022-10-15T12:04:28;16.90;99.90
5554;DHT22;2800;49.528;8.666;2022-10-15T12:06:56;16.90;99.90
5554;DHT22;2800;49.528;8.666;2022-10-15T12:09:45;16.90;99.90
5554;DHT22;2800;49.528;8.666;2022-10-15T12:17:46;17.10;99.90
5554;DHT22;2800;49.528;8.666;2022-10-15T12:20:15;17.20;99.90
5554;DHT22;2800;49.528;8.666;2022-10-15T12:23:00;17.20;99.90
5554;DHT22;2800;49.528;8.666;2022-10-15T12:28:04;17.10;99.90
5554;DHT22;2800;49.528;8.666;2022-10-15T12:30:37;17.00;99.90
5554;DHT22;2800;49.528;8.666;2022-10-15T12:36:02;16.80;99.90
5554;DHT22;2800;49.528;8.666;2022-10-15T12:38:35;16.70;99.90
5554;DHT22;2800;49.528;8.666;2022-10-15T12:41:08;16.60;99.90
5554;DHT22;2800;49.528;8.666;2022-10-15T12:43:37;16.60;99.90
5554;DHT22;2800;49.528;8.666;2022-10-15T12:46:06;16.60;99.90
5554;DHT22;2800;49.528;8.666;2022-10-15T12:48:41;16.60;99.90
5554;DHT22;2800;49.528;8.666;2022-10-15T12:53:52;16.60;99.90
5554;DHT22;2800;49.528;8.666;2022-10-15T12:56:24;16.70;99.90
5554;DHT22;2800;49.528;8.666;2022-10-15T12:58:57;16.60;99.90
5554;DHT22;2800;49.528;8.666;2022-10-15T13:01:28;16.80;99.90
5554;DHT22;2800;49.528;8.666;2022-10-15T13:03:55;16.70;99.90
5554;DHT22;2800;49.528;8.666;2022-10-15T13:06:30;16.60;99.90
5554;DHT22;2800;49.528;8.666;2022-10-15T13:11:43;16.60;99.90
5554;DHT22;2800;49.528;8.666;2022-10-15T13:14:29;16.60;99.90
5554;DHT22;2800;49.528;8.666;2022-10-15T13:16:56;16.60;99.90
5554;DHT22;2800;49.528;8.666;2022-10-15T13:19:40;16.60;99.90
5554;DHT22;2800;49.528;8.666;2022-10-15T13:22:25;16.60;99.90
5554;DHT22;2800;49.528;8.666;2022-10-15T13:24:51;16.60;99.90
5554;DHT22;2800;49.528;8.666;2022-10-15T13:30:01;16.70;99.90
5554;DHT22;2800;49.528;8.666;2022-10-15T13:32:30;16.70;99.90
5554;DHT22;2800;49.528;8.666;2022-10-15T13:34:57;16.60;99.90
5554;DHT22;2800;49.528;8.666;2022-10-15T13:37:30;16.50;99.90
5554;DHT22;2800;49.528;8.666;2022-10-15T13:39:57;16.50;99.90
5554;DHT22;2800;49.528;8.666;2022-10-15T13:42:24;16.40;99.90
5554;DHT22;2800;49.528;8.666;2022-10-15T13:45:15;16.40;99.90
5554;DHT22;2800;49.528;8.666;2022-10-15T13:47:49;16.30;99.90
5554;DHT22;2800;49.528;8.666;2022-10-15T13:50:31;16.40;99.90
5554;DHT22;2800;49.528;8.666;2022-10-15T13:55:46;16.40;99.90
5554;DHT22;2800;49.528;8.666;2022-10-15T13:58:27;16.30;99.90
5554;DHT22;2800;49.528;8.666;2022-10-15T14:00:59;16.40;99.90
5554;DHT22;2800;49.528;8.666;2022-10-15T14:03:30;16.40;99.90
5554;DHT22;2800;49.528;8.666;2022-10-15T14:06:19;16.40;99.90
5554;DHT22;2800;49.528;8.666;2022-10-15T14:08:47;16.50;99.90
5554;DHT22;2800;49.528;8.666;2022-10-15T14:11:14;16.50;99.90
5554;DHT22;2800;49.528;8.666;2022-10-15T14:13:54;16.50;99.90
5554;DHT22;2800;49.528;8.666;2022-10-15T14:16:30;16.50;99.90
5554;DHT22;2800;49.528;8.666;2022-10-15T14:21:32;16.50;99.90
5554;DHT22;2800;49.528;8.666;2022-10-15T14:24:04;16.50;99.90
5554;DHT22;2800;49.528;8.666;2022-10-15T14:26:31;16.50;99.90
5554;DHT22;2800;49.528;8.666;2022-10-15T14:28:58;16.50;99.90
5554;DHT22;2800;49.528;8.666;2022-10-15T14:34:00;16.60;99.90
5554;DHT22;2800;49.528;8.666;2022-10-15T14:36:30;16.70;99.90
5554;DHT22;2800;49.528;8.666;2022-10-15T14:42:03;16.80;99.90
5554;DHT22;2800;49.528;8.666;2022-10-15T14:44:46;16.70;99.90
5554;DHT22;2800;49.528;8.666;2022-10-15T14:47:19;16.70;99.90
5554;DHT22;2800;49.528;8.666;2022-10-15T14:49:45;16.70;99.90
5554;DHT22;2800;49.528;8.666;2022-10-15T14:52:13;16.70;99.90
5554;DHT22;2800;49.528;8.666;2022-10-15T14:57:34;16.60;99.90
5554;DHT22;2800;49.528;8.666;2022-10-15T15:00:03;16.60;99.90
5554;DHT22;2800;49.528;8.666;2022-10-15T15:02:29;16.60;99.90
5554;DHT22;2800;49.528;8.666;2022-10-15T15:07:36;16.60;99.90
5554;DHT22;2800;49.528;8.666;2022-10-15T15:10:02;16.60;99.90
5554;DHT22;2800;49.528;8.666;2022-10-15T15:12:28;16.60;99.90
5554;DHT22;2800;49.528;8.666;2022-10-15T15:14:55;16.60;99.90
5554;DHT22;2800;49.528;8.666;2022-10-15T15:17:23;16.60;99.90
5554;DHT22;2800;49.528;8.666;2022-10-15T15:19:50;16.60;99.90
5554;DHT22;2800;49.528;8.666;2022-10-15T15:22:29;16.50;99.90
5554;DHT22;2800;49.528;8.666;2022-10-15T15:24:56;16.50;99.90
5554;DHT22;2800;49.528;8.666;2022-10-15T15:27:25;16.50;99.90
5554;DHT22;2800;49.528;8.666;2022-10-15T15:29:51;16.40;99.90
5554;DHT22;2800;49.528;8.666;2022-10-15T15:32:17;16.40;99.90
5554;DHT22;2800;49.528;8.666;2022-10-15T15:34:43;16.40;99.90
5554;DHT22;2800;49.528;8.666;2022-10-15T15:37:22;16.30;99.90
5554;DHT22;2800;49.528;8.666;2022-10-15T15:39:48;16.30;99.90
5554;DHT22;2800;49.528;8.666;2022-10-15T15:42:17;16.30;99.90
5554;DHT22;2800;49.528;8.666;2022-10-15T15:44:43;16.30;99.90
5554;DHT22;2800;49.528;8.666;2022-10-15T15:47:09;16.30;99.90
5554;DHT22;2800;49.528;8.666;2022-10-15T15:49:35;16.30;99.90
5554;DHT22;2800;49.528;8.666;2022-10-15T15:52:01;16.30;99.90
5554;DHT22;2800;49.528;8.666;2022-10-15T15:54:27;16.30;99.90
5554;DHT22;2800;49.528;8.666;2022-10-15T15:56:52;16.30;99.90
5554;DHT22;2800;49.528;8.666;2022-10-15T15:59:18;16.30;99.90
5554;DHT22;2800;49.528;8.666;2022-10-15T16:01:44;16.30;99.90
5554;DHT22;2800;49.528;8.666;2022-10-15T16:04:10;16.40;99.90
5554;DHT22;2800;49.528;8.666;2022-10-15T16:06:37;16.40;99.90
5554;DHT22;2800;49.528;8.666;2022-10-15T16:09:03;16.40;99.90
5554;DHT22;2800;49.528;8.666;2022-10-15T16:11:30;16.30;99.90
5554;DHT22;2800;49.528;8.666;2022-10-15T16:13:56;16.30;99.90
5554;DHT22;2800;49.528;8.666;2022-10-15T16:16:22;16.40;99.90
5554;DHT22;2800;49.528;8.666;2022-10-15T16:18:49;16.40;99.90
5554;DHT22;2800;49.528;8.666;2022-10-15T16:21:20;16.40;99.90
5554;DHT22;2800;49.528;8.666;2022-10-15T16:23:46;16.40;99.90
5554;DHT22;2800;49.528;8.666;2022-10-15T16:26:12;16.30;99.90
5554;DHT22;2800;49.528;8.666;2022-10-15T16:28:37;16.30;99.90
5554;DHT22;2800;49.528;8.666;2022-10-15T16:31:16;16.40;99.90
5554;DHT22;2800;49.528;8.666;2022-10-15T16:33:42;16.40;99.90
5554;DHT22;2800;49.528;8.666;2022-10-15T16:36:08;16.40;99.90
5554;DHT22;2800;49.528;8.666;2022-10-15T16:38:34;16.40;99.90
5554;DHT22;2800;49.528;8.666;2022-10-15T16:40:59;16.40;99.90
5554;DHT22;2800;49.528;8.666;2022-10-15T16:43:25;16.40;99.90
5554;DHT22;2800;49.528;8.666;2022-10-15T16:45:57;16.40;99.90
5554;DHT22;2800;49.528;8.666;2022-10-15T16:48:23;16.40;99.90
5554;DHT22;2800;49.528;8.666;2022-10-15T16:51:03;16.40;99.90
5554;DHT22;2800;49.528;8.666;2022-10-15T16:53:32;16.40;99.90
5554;DHT22;2800;49.528;8.666;2022-10-15T16:56:18;16.40;99.90
5554;DHT22;2800;49.528;8.666;2022-10-15T16:58:44;16.30;99.90
5554;DHT22;2800;49.528;8.666;2022-10-15T17:01:11;16.30;99.90
5554;DHT22;2800;49.528;8.666;2022-10-15T17:03:38;16.30;99.90
5554;DHT22;2800;49.528;8.666;2022-10-15T17:06:06;16.30;99.90
5554;DHT22;2800;49.528;8.666;2022-10-15T17:08:52;16.20;99.90
5554;DHT22;2800;49.528;8.666;2022-10-15T17:11:21;16.20;99.90
5554;DHT22;2800;49.528;8.666;2022-10-15T17:13:48;16.20;99.90
5554;DHT22;2800;49.528;8.666;2022-10-15T17:16:17;16.20;99.90
5554;DHT22;2800;49.528;8.666;2022-10-15T17:18:44;16.20;99.90
5554;DHT22;2800;49.528;8.666;2022-10-15T17:21:13;16.20;99.90
5554;DHT22;2800;49.528;8.666;2022-10-15T17:23:38;16.20;99.90
5554;DHT22;2800;49.528;8.666;2022-10-15T17:26:07;16.20;99.90
5554;DHT22;2800;49.528;8.666;2022-10-15T17:28:34;16.20;99.90
5554;DHT22;2800;49.528;8.666;2022-10-15T17:31:04;16.20;99.90
5554;DHT22;2800;49.528;8.666;2022-10-15T17:33:30;16.20;99.90
5554;DHT22;2800;49.528;8.666;2022-10-15T17:35:55;16.10;99.90
5554;DHT22;2800;49.528;8.666;2022-10-15T17:38:21;16.10;99.90
5554;DHT22;2800;49.528;8.666;2022-10-15T17:40:47;16.10;99.90
5554;DHT22;2800;49.528;8.666;2022-10-15T17:43:12;16.10;99.90
5554;DHT22;2800;49.528;8.666;2022-10-15T17:45:37;16.10;99.90
5554;DHT22;2800;49.528;8.666;2022-10-15T17:48:03;14.60;99.90
5554;DHT22;2800;49.528;8.666;2022-10-15T17:50:29;16.10;99.90
5554;DHT22;2800;49.528;8.666;2022-10-15T17:52:54;16.10;99.90